createdAt,value
2023-04-08T00:00:48.997Z,1.88
2023-04-08T00:01:52.283Z,2.60
2023-04-08T00:02:54.831Z,2.10
2023-04-08T00:03:57.491Z,1.60
2023-04-08T00:05:00.322Z,4.40
2023-04-08T00:06:03.980Z,2.50
2023-04-08T00:07:07.231Z,3.22
2023-04-08T00:08:10.550Z,1.85
2023-04-08T00:09:12.871Z,4.55
2023-04-08T00:10:15.387Z,2.92
2023-04-08T00:11:17.734Z,2.63
2023-04-08T00:12:20.413Z,3.75
2023-04-08T00:13:22.776Z,6.07
2023-04-08T00:14:25.219Z,2.45
2023-04-08T00:15:27.773Z,2.45
2023-04-08T00:16:30.801Z,2.90
2023-04-08T00:17:33.203Z,3.10
2023-04-08T00:18:38.072Z,2.13
2023-04-08T00:19:40.540Z,2.22
2023-04-08T00:20:43.475Z,3.83
2023-04-08T00:21:45.864Z,2.22
2023-04-08T00:22:48.320Z,3.08
2023-04-08T00:23:50.621Z,3.25
2023-04-08T00:24:53.099Z,2.05
2023-04-08T00:25:55.638Z,3.35
2023-04-08T00:26:58.223Z,3.25
2023-04-08T00:28:00.761Z,2.88
2023-04-08T00:29:03.725Z,3.50
2023-04-08T00:30:07.947Z,2.65
2023-04-08T00:31:10.580Z,3.03
2023-04-08T00:32:13.292Z,2.45
2023-04-08T00:33:16.551Z,3.08
2023-04-08T00:34:18.949Z,3.58
2023-04-08T00:35:21.433Z,3.38
2023-04-08T00:36:24.322Z,4.00
2023-04-08T00:37:28.044Z,2.88
2023-04-08T00:38:31.056Z,3.78
2023-04-08T00:39:33.546Z,2.20
2023-04-08T00:40:37.077Z,2.70
2023-04-08T00:41:40.691Z,3.63
2023-04-08T00:42:43.007Z,3.05
2023-04-08T00:43:45.580Z,3.55
2023-04-08T00:44:48.122Z,2.67
2023-04-08T00:45:50.571Z,3.42
2023-04-08T00:46:52.924Z,2.53
2023-04-08T00:47:56.265Z,2.42
2023-04-08T00:48:58.633Z,2.78
2023-04-08T00:50:01.271Z,2.67
2023-04-08T00:51:04.083Z,3.67
2023-04-08T00:52:07.035Z,2.70
2023-04-08T00:53:09.961Z,2.47
2023-04-08T00:54:12.411Z,3.47
2023-04-08T00:55:14.880Z,2.67
2023-04-08T00:56:17.236Z,2.85
2023-04-08T00:57:19.648Z,2.47
2023-04-08T00:58:22.414Z,3.53
2023-04-08T00:59:25.107Z,4.30
2023-04-08T01:00:30.202Z,2.60
2023-04-08T01:01:49.879Z,3.60
2023-04-08T01:03:16.501Z,3.88
2023-04-08T01:05:00.793Z,3.90
2023-04-08T01:06:32.388Z,2.63
2023-04-08T01:07:39.103Z,3.67
2023-04-08T01:08:43.029Z,5.13
2023-04-08T01:09:48.546Z,3.35
2023-04-08T01:10:54.899Z,5.80
2023-04-08T01:12:02.311Z,3.67
2023-04-08T01:13:08.451Z,3.97
2023-04-08T01:14:15.694Z,5.45
2023-04-08T01:15:18.465Z,2.67
2023-04-08T01:16:21.950Z,2.67
2023-04-08T01:17:24.716Z,3.10
2023-04-08T01:18:27.736Z,3.72
2023-04-08T01:19:34.995Z,4.68
2023-04-08T01:20:38.978Z,4.22
2023-04-08T01:21:41.674Z,3.20
2023-04-08T01:22:48.523Z,4.10
2023-04-08T01:24:20.350Z,3.75
2023-04-08T01:25:27.266Z,3.83
2023-04-08T01:26:30.946Z,4.35
2023-04-08T01:27:34.069Z,4.13
2023-04-08T01:28:37.732Z,4.57
2023-04-08T01:29:41.961Z,3.38
2023-04-08T01:30:46.277Z,3.53
2023-04-08T01:31:49.462Z,3.83
2023-04-08T01:32:55.578Z,3.58
2023-04-08T01:33:59.888Z,3.58
2023-04-08T01:35:03.371Z,3.10
2023-04-08T01:36:06.588Z,4.13
2023-04-08T01:37:14.808Z,8.73
2023-04-08T01:38:19.827Z,10.55
2023-04-08T01:39:25.517Z,62.60
2023-04-08T01:40:27.998Z,62.47
2023-04-08T01:41:31.649Z,21.67
2023-04-08T01:42:35.284Z,64.53
2023-04-08T01:43:41.137Z,19.08
2023-04-08T01:44:44.214Z,28.98
2023-04-08T01:45:48.444Z,44.50
2023-04-08T01:46:52.938Z,34.85
2023-04-08T01:47:56.504Z,30.55
2023-04-08T01:49:00.899Z,22.30
2023-04-08T01:50:04.822Z,18.40
2023-04-08T01:51:09.189Z,15.98
2023-04-08T01:52:12.813Z,19.30
2023-04-08T01:53:15.435Z,11.95
2023-04-08T01:54:18.268Z,11.65
2023-04-08T01:55:21.157Z,8.07
2023-04-08T01:56:26.000Z,8.63
2023-04-08T01:57:31.931Z,8.88
2023-04-08T01:58:43.143Z,7.53
2023-04-08T01:59:48.301Z,7.45
2023-04-08T02:00:53.941Z,7.85
2023-04-08T02:01:58.758Z,7.60
2023-04-08T02:03:05.782Z,8.70
2023-04-08T02:04:08.424Z,8.35
2023-04-08T02:05:10.937Z,7.97
2023-04-08T02:06:13.509Z,6.53
2023-04-08T02:07:15.993Z,7.13
2023-04-08T02:08:18.469Z,7.15
2023-04-08T02:09:20.906Z,7.22
2023-04-08T02:10:23.381Z,5.78
2023-04-08T02:11:26.093Z,11.77
2023-04-08T02:12:28.740Z,8.70
2023-04-08T02:13:32.279Z,7.32
2023-04-08T02:14:35.089Z,8.63
2023-04-08T02:15:52.001Z,5.78
2023-04-08T02:17:09.000Z,9.15
2023-04-08T02:18:25.256Z,7.05
2023-04-08T02:19:52.428Z,7.95
2023-04-08T02:21:07.135Z,7.63
2023-04-08T02:22:18.547Z,15.20
2023-04-08T02:23:24.512Z,45.20
2023-04-08T02:24:30.462Z,26.48
2023-04-08T02:25:36.209Z,70.80
2023-04-08T02:26:39.707Z,20.15
2023-04-08T02:27:45.674Z,55.95
2023-04-08T02:28:50.240Z,40.58
2023-04-08T02:29:57.136Z,78.03
2023-04-08T02:31:04.146Z,56.35
2023-04-08T02:32:10.961Z,61.45
2023-04-08T02:33:14.728Z,37.70
2023-04-08T02:34:21.610Z,25.42
2023-04-08T02:35:24.519Z,20.70
2023-04-08T02:36:27.753Z,21.92
2023-04-08T02:37:31.157Z,13.05
2023-04-08T02:38:34.060Z,16.55
2023-04-08T02:39:36.728Z,14.85
2023-04-08T02:40:39.234Z,13.20
2023-04-08T02:41:41.678Z,12.10
2023-04-08T02:42:44.028Z,13.73
2023-04-08T02:43:47.983Z,11.73
2023-04-08T02:44:51.383Z,13.90
2023-04-08T02:45:54.031Z,12.10
2023-04-08T02:46:56.622Z,10.95
2023-04-08T02:48:02.485Z,12.05
2023-04-08T02:49:05.658Z,11.73
2023-04-08T02:50:08.573Z,12.00
2023-04-08T02:51:11.070Z,13.55
2023-04-08T02:52:13.862Z,12.48
2023-04-08T02:53:17.143Z,11.00
2023-04-08T02:54:19.641Z,12.90
2023-04-08T02:55:22.026Z,10.25
2023-04-08T02:56:24.395Z,13.60
2023-04-08T02:57:26.800Z,11.30
2023-04-08T02:58:29.342Z,10.50
2023-04-08T02:59:31.835Z,10.48
2023-04-08T03:00:34.312Z,16.63
2023-04-08T03:01:36.977Z,18.30
2023-04-08T03:02:39.620Z,12.20
2023-04-08T03:03:42.387Z,25.17
2023-04-08T03:04:45.059Z,87.05
2023-04-08T03:05:47.453Z,45.35
2023-04-08T03:06:49.781Z,48.33
2023-04-08T03:07:52.196Z,65.45
2023-04-08T03:08:54.525Z,30.08
2023-04-08T03:09:56.876Z,23.00
2023-04-08T03:10:59.305Z,23.73
2023-04-08T03:12:01.746Z,20.70
2023-04-08T03:13:06.337Z,19.58
2023-04-08T03:14:08.666Z,14.48
2023-04-08T03:15:11.108Z,15.15
2023-04-08T03:16:13.877Z,12.80
2023-04-08T03:17:16.907Z,11.35
2023-04-08T03:18:19.252Z,12.15
2023-04-08T03:19:21.717Z,13.65
2023-04-08T03:20:24.372Z,14.10
2023-04-08T03:21:27.011Z,11.73
2023-04-08T03:22:29.414Z,9.35
2023-04-08T03:23:31.829Z,11.18
2023-04-08T03:24:34.330Z,10.85
2023-04-08T03:25:36.710Z,10.57
2023-04-08T03:26:39.137Z,11.68
2023-04-08T03:27:42.077Z,11.20
2023-04-08T03:28:44.599Z,9.13
2023-04-08T03:29:47.825Z,10.10
2023-04-08T03:30:50.930Z,9.73
2023-04-08T03:31:53.656Z,11.73
2023-04-08T03:32:56.086Z,12.07
2023-04-08T03:33:58.555Z,10.20
2023-04-08T03:35:01.079Z,9.40
2023-04-08T03:45:52.166Z,9.25
2023-04-08T03:46:58.426Z,8.13
2023-04-08T03:48:01.955Z,7.82
2023-04-08T03:49:04.356Z,6.18
2023-04-08T03:50:08.573Z,8.50
2023-04-08T03:51:10.974Z,8.93
2023-04-08T03:52:14.581Z,89.40
2023-04-08T03:53:18.617Z,332.27
2023-04-08T03:54:21.005Z,114.20
2023-04-08T03:55:23.487Z,181.13
2023-04-08T03:56:26.001Z,74.22
2023-04-08T03:57:29.599Z,57.55
2023-04-08T03:58:32.734Z,233.18
2023-04-08T03:59:36.425Z,100.78
2023-04-08T04:00:46.673Z,98.78
2023-04-08T04:01:51.250Z,104.65
2023-04-08T04:02:55.528Z,75.03
2023-04-08T04:03:58.722Z,61.13
2023-04-08T04:05:01.428Z,61.17
2023-04-08T04:06:04.205Z,53.78
2023-04-08T04:07:06.593Z,54.30
2023-04-08T04:08:09.432Z,57.72
2023-04-08T04:09:11.753Z,54.65
2023-04-08T04:10:14.161Z,46.03
2023-04-08T04:11:16.752Z,51.08
2023-04-08T04:12:19.045Z,44.13
2023-04-08T04:13:22.005Z,48.25
2023-04-08T04:14:24.526Z,47.55
2023-04-08T04:15:27.042Z,45.53
2023-04-08T04:16:32.231Z,45.37
2023-04-08T04:17:35.313Z,39.70
2023-04-08T04:18:38.086Z,42.75
2023-04-08T04:19:40.529Z,42.28
2023-04-08T04:20:43.050Z,36.17
2023-04-08T04:21:45.451Z,35.90
2023-04-08T04:22:47.899Z,28.13
2023-04-08T04:23:50.202Z,21.60
2023-04-08T04:24:52.548Z,18.90
2023-04-08T04:25:54.969Z,16.83
2023-04-08T04:26:57.482Z,16.50
2023-04-08T04:28:00.106Z,18.70
2023-04-08T04:29:02.459Z,16.30
2023-04-08T04:30:05.698Z,17.85
2023-04-08T04:31:08.219Z,18.17
2023-04-08T04:32:13.548Z,20.88
2023-04-08T04:33:18.344Z,22.58
2023-04-08T04:34:20.894Z,23.48
2023-04-08T04:35:23.558Z,24.63
2023-04-08T04:36:26.427Z,23.40
2023-04-08T04:37:28.764Z,22.85
2023-04-08T04:38:31.043Z,24.58
2023-04-08T04:39:33.382Z,23.98
2023-04-08T04:40:35.727Z,25.13
2023-04-08T04:41:40.562Z,25.30
2023-04-08T04:42:43.080Z,24.33
2023-04-08T04:43:45.683Z,21.73
2023-04-08T04:44:49.241Z,24.50
2023-04-08T04:45:51.583Z,21.65
2023-04-08T04:46:54.088Z,29.25
2023-04-08T04:47:56.474Z,23.02
2023-04-08T04:48:58.852Z,22.95
2023-04-08T04:50:01.760Z,23.08
2023-04-08T04:51:04.824Z,23.45
2023-04-08T04:52:07.496Z,22.38
2023-04-08T04:53:09.844Z,162.55
2023-04-08T04:54:12.151Z,167.27
2023-04-08T04:55:15.902Z,175.00
2023-04-08T04:56:18.219Z,138.10
2023-04-08T04:57:20.653Z,127.00
2023-04-08T04:58:22.972Z,118.50
2023-04-08T04:59:25.442Z,105.82
2023-04-08T05:00:31.576Z,86.18
2023-04-08T05:01:34.411Z,65.35
2023-04-08T05:02:37.202Z,55.40
2023-04-08T05:03:39.690Z,48.70
2023-04-08T05:04:42.458Z,43.70
2023-04-08T05:05:44.911Z,42.97
2023-04-08T05:06:47.364Z,43.08
2023-04-08T05:07:50.717Z,40.45
2023-04-08T05:08:53.838Z,39.30
2023-04-08T05:09:56.244Z,41.40
2023-04-08T05:11:01.967Z,42.60
2023-04-08T05:12:04.630Z,43.13
2023-04-08T05:13:07.175Z,38.75
2023-04-08T05:14:09.881Z,39.95
2023-04-08T05:15:12.228Z,39.85
2023-04-08T05:16:14.595Z,41.08
2023-04-08T05:17:16.930Z,41.42
2023-04-08T05:18:21.262Z,37.22
2023-04-08T05:19:23.821Z,37.67
2023-04-08T05:20:26.183Z,32.60
2023-04-08T05:21:32.596Z,38.45
2023-04-08T05:22:35.939Z,38.53
2023-04-08T05:23:38.458Z,34.83
2023-04-08T05:24:41.064Z,35.75
2023-04-08T05:25:43.504Z,35.13
2023-04-08T05:26:51.189Z,35.70
2023-04-08T05:27:53.727Z,33.53
2023-04-08T05:28:56.215Z,29.13
2023-04-08T05:29:58.704Z,33.88
2023-04-08T05:31:02.114Z,31.92
2023-04-08T05:32:04.464Z,32.20
2023-04-08T05:33:06.925Z,47.17
2023-04-08T05:34:09.983Z,82.07
2023-04-08T05:35:12.348Z,55.58
2023-04-08T05:36:16.441Z,40.83
2023-04-08T05:37:18.851Z,45.90
2023-04-08T05:38:21.183Z,42.65
2023-04-08T05:39:23.538Z,36.83
2023-04-08T05:40:26.858Z,37.22
2023-04-08T05:41:29.177Z,35.75
2023-04-08T05:42:32.461Z,32.83
2023-04-08T05:43:35.443Z,34.30
2023-04-08T05:44:38.819Z,30.40
2023-04-08T05:45:41.320Z,35.33
2023-04-08T05:46:43.785Z,36.13
2023-04-08T05:47:46.239Z,31.92
2023-04-08T05:48:49.197Z,32.35
2023-04-08T05:49:52.341Z,27.92
2023-04-08T05:50:55.860Z,31.98
2023-04-08T05:51:58.239Z,30.63
2023-04-08T05:53:00.691Z,28.67
2023-04-08T05:54:03.139Z,32.08
2023-04-08T05:55:08.702Z,29.38
2023-04-08T05:56:13.412Z,29.35
2023-04-08T05:57:16.746Z,28.13
2023-04-08T05:58:20.462Z,28.17
2023-04-08T05:59:23.441Z,36.15
2023-04-08T06:00:33.371Z,27.20
2023-04-08T06:01:36.049Z,29.67
2023-04-08T06:02:39.626Z,28.30
2023-04-08T06:03:42.178Z,29.90
2023-04-08T06:04:44.785Z,24.33
2023-04-08T06:05:47.460Z,27.98
2023-04-08T06:06:49.913Z,32.92
2023-04-08T06:07:54.723Z,28.67
2023-04-08T06:08:59.725Z,29.45
2023-04-08T06:10:02.639Z,28.17
2023-04-08T06:11:05.445Z,26.88
2023-04-08T06:12:07.867Z,25.83
2023-04-08T06:13:10.397Z,46.42
2023-04-08T06:14:12.927Z,47.25
2023-04-08T06:15:16.705Z,67.63
2023-04-08T06:16:20.922Z,45.33
2023-04-08T06:17:24.121Z,40.90
2023-04-08T06:18:26.604Z,42.97
2023-04-08T06:19:29.086Z,35.17
2023-04-08T06:20:31.562Z,34.30
2023-04-08T06:21:34.221Z,31.13
2023-04-08T06:22:36.929Z,33.63
2023-04-08T06:23:39.389Z,29.80
2023-04-08T06:24:41.838Z,32.92
2023-04-08T06:25:44.228Z,26.83
2023-04-08T06:26:47.966Z,30.48
2023-04-08T06:27:50.415Z,28.08
2023-04-08T06:28:52.874Z,27.83
2023-04-08T06:29:55.346Z,32.80
2023-04-08T06:30:58.393Z,31.02
2023-04-08T06:32:00.989Z,31.70
2023-04-08T06:33:03.477Z,33.15
2023-04-08T06:34:06.108Z,29.00
2023-04-08T06:35:08.847Z,27.33
2023-04-08T06:36:13.175Z,28.17
2023-04-08T06:37:15.688Z,28.27
2023-04-08T06:38:18.121Z,33.80
2023-04-08T06:39:21.680Z,27.90
2023-04-08T06:40:24.135Z,29.25
2023-04-08T06:41:26.875Z,26.30
2023-04-08T06:42:38.322Z,28.85
2023-04-08T06:43:53.610Z,25.00
2023-04-08T06:44:56.596Z,25.27
2023-04-08T06:45:59.396Z,26.25
2023-04-08T06:47:01.907Z,27.92
2023-04-08T06:48:04.540Z,29.63
2023-04-08T06:49:07.068Z,26.05
2023-04-08T06:50:09.934Z,28.35
2023-04-08T06:51:12.445Z,27.17
2023-04-08T06:52:15.272Z,25.20
2023-04-08T06:53:17.918Z,24.80
2023-04-08T06:54:20.747Z,32.45
2023-04-08T06:55:23.125Z,49.92
2023-04-08T06:56:27.905Z,54.90
2023-04-08T06:57:30.354Z,42.45
2023-04-08T06:58:32.792Z,44.15
2023-04-08T06:59:35.439Z,32.83
2023-04-08T07:00:38.028Z,37.30
2023-04-08T07:01:41.227Z,33.63
2023-04-08T07:02:43.750Z,29.52
2023-04-08T07:03:46.423Z,31.08
2023-04-08T07:04:49.194Z,29.75
2023-04-08T07:05:52.244Z,29.60
2023-04-08T07:06:54.859Z,37.92
2023-04-08T07:07:57.256Z,31.98
2023-04-08T07:08:59.861Z,28.73
2023-04-08T07:10:02.353Z,27.35
2023-04-08T07:11:05.754Z,28.33
2023-04-08T07:12:08.171Z,27.58
2023-04-08T07:13:13.162Z,29.00
2023-04-08T07:14:15.683Z,29.80
2023-04-08T07:15:18.639Z,29.30
2023-04-08T07:16:21.657Z,27.48
2023-04-08T07:17:24.472Z,27.50
2023-04-08T07:18:26.887Z,26.95
2023-04-08T07:19:30.256Z,28.67
2023-04-08T07:20:32.723Z,28.05
2023-04-08T07:21:35.171Z,24.73
2023-04-08T07:22:37.522Z,26.70
2023-04-08T07:23:39.945Z,28.67
2023-04-08T07:24:43.371Z,26.05
2023-04-08T07:25:46.770Z,25.15
2023-04-08T07:26:49.595Z,24.30
2023-04-08T07:27:52.888Z,25.13
2023-04-08T07:28:55.486Z,23.02
2023-04-08T07:29:58.083Z,27.67
2023-04-08T07:31:15.053Z,25.88
2023-04-08T07:32:17.744Z,30.45
2023-04-08T07:33:20.350Z,50.78
2023-04-08T07:34:22.774Z,67.28
2023-04-08T07:35:26.088Z,49.92
2023-04-08T07:36:29.338Z,31.95
2023-04-08T07:37:31.869Z,27.92
2023-04-08T07:38:34.223Z,26.75
2023-04-08T07:39:36.695Z,25.25
2023-04-08T07:40:39.173Z,26.60
2023-04-08T07:41:41.557Z,26.75
2023-04-08T07:42:43.945Z,27.25
2023-04-08T07:43:46.420Z,27.90
2023-04-08T07:44:49.028Z,29.50
2023-04-08T07:45:51.471Z,23.50
2023-04-08T07:46:53.866Z,27.35
2023-04-08T07:47:56.233Z,26.08
2023-04-08T07:48:58.895Z,24.40
2023-04-08T07:50:01.601Z,26.58
2023-04-08T07:51:10.958Z,24.67
2023-04-08T07:52:13.916Z,26.00
2023-04-08T07:53:16.349Z,27.13
2023-04-08T07:54:19.080Z,29.35
2023-04-08T07:55:21.492Z,25.20
2023-04-08T07:56:24.278Z,31.63
2023-04-08T07:57:26.821Z,39.58
2023-04-08T07:58:29.489Z,39.90
2023-04-08T07:59:32.374Z,32.33
2023-04-08T08:00:35.310Z,34.40
2023-04-08T08:01:37.865Z,26.92
2023-04-08T08:02:40.449Z,34.30
2023-04-08T08:03:43.469Z,27.55
2023-04-08T08:04:46.152Z,34.90
2023-04-08T08:05:48.985Z,21.35
2023-04-08T08:06:51.466Z,20.85
2023-04-08T08:07:53.863Z,15.98
2023-04-08T08:08:56.312Z,16.63
2023-04-08T08:09:58.646Z,19.58
2023-04-08T08:11:01.102Z,19.10
2023-04-08T08:12:03.542Z,20.77
2023-04-08T08:13:07.100Z,21.33
2023-04-08T08:14:11.646Z,25.48
2023-04-08T08:15:14.832Z,25.48
2023-04-08T08:16:17.601Z,22.50
2023-04-08T08:17:20.039Z,25.48
2023-04-08T08:18:22.498Z,20.92
2023-04-08T08:19:25.394Z,24.00
2023-04-08T08:20:28.052Z,22.13
2023-04-08T08:21:31.322Z,24.70
2023-04-08T08:22:34.165Z,20.52
2023-04-08T08:23:38.217Z,22.88
2023-04-08T08:24:40.611Z,33.15
2023-04-08T08:25:42.993Z,29.08
2023-04-08T08:26:47.091Z,24.48
2023-04-08T08:27:51.047Z,23.08
2023-04-08T08:29:02.912Z,23.02
2023-04-08T08:30:06.204Z,25.83
2023-04-08T08:31:12.278Z,21.08
2023-04-08T08:32:14.850Z,22.65
2023-04-08T08:33:17.335Z,21.98
2023-04-08T08:34:20.258Z,24.55
2023-04-08T08:35:23.261Z,20.83
2023-04-08T08:36:27.299Z,26.75
2023-04-08T08:37:29.861Z,21.30
2023-04-08T08:38:32.397Z,20.55
2023-04-08T08:39:34.794Z,21.52
2023-04-08T08:40:38.426Z,18.95
2023-04-08T08:41:42.306Z,24.52
2023-04-08T08:42:54.533Z,23.25
2023-04-08T08:43:59.531Z,23.65
2023-04-08T08:45:05.179Z,20.25
2023-04-08T08:46:11.929Z,21.50
2023-04-08T08:47:16.147Z,20.95
2023-04-08T08:48:18.652Z,23.02
2023-04-08T08:49:21.020Z,21.38
2023-04-08T08:50:23.642Z,19.75
2023-04-08T08:51:27.967Z,22.73
2023-04-08T08:52:30.505Z,21.75
2023-04-08T08:53:35.749Z,19.70
2023-04-08T08:54:38.558Z,19.65
2023-04-08T08:56:00.246Z,21.58
2023-04-08T08:57:03.768Z,21.23
2023-04-08T08:58:07.570Z,20.90
2023-04-08T08:59:12.775Z,19.95
2023-04-08T09:00:16.285Z,19.35
2023-04-08T09:01:34.818Z,19.92
2023-04-08T09:02:37.617Z,19.13
2023-04-08T09:03:40.506Z,21.55
2023-04-08T09:05:03.263Z,20.75
2023-04-08T09:06:06.783Z,21.05
2023-04-08T09:07:10.903Z,21.13
2023-04-08T09:08:36.931Z,21.63
2023-04-08T09:09:52.890Z,21.17
2023-04-08T09:10:56.368Z,24.65
2023-04-08T09:12:04.865Z,23.20
2023-04-08T09:13:08.094Z,19.20
2023-04-08T09:14:24.910Z,17.73
2023-04-08T09:15:27.426Z,16.92
2023-04-08T09:16:32.166Z,18.20
2023-04-08T09:17:39.828Z,19.58
2023-04-08T09:18:45.947Z,22.55
2023-04-08T09:20:09.760Z,20.83
2023-04-08T09:21:13.771Z,17.70
2023-04-08T09:22:17.159Z,19.20
2023-04-08T09:23:19.799Z,23.17
2023-04-08T09:24:31.997Z,22.77
2023-04-08T09:25:34.838Z,18.15
2023-04-08T09:26:41.726Z,24.75
2023-04-08T09:27:44.432Z,18.85
2023-04-08T09:29:25.039Z,21.85
2023-04-08T09:30:29.196Z,21.92
2023-04-08T09:31:33.739Z,24.77
2023-04-08T09:32:54.279Z,20.02
2023-04-08T09:34:00.083Z,19.25
2023-04-08T09:35:04.802Z,21.85
2023-04-08T09:36:08.350Z,18.60
2023-04-08T09:37:11.394Z,18.75
2023-04-08T09:38:13.999Z,23.85
2023-04-08T09:39:16.685Z,18.67
2023-04-08T09:40:19.305Z,20.73
2023-04-08T09:41:24.289Z,25.52
2023-04-08T09:42:27.096Z,17.40
2023-04-08T09:43:29.582Z,24.38
2023-04-08T09:44:35.214Z,18.27
2023-04-08T09:45:42.954Z,32.00
2023-04-08T09:46:53.925Z,45.47
2023-04-08T09:48:05.630Z,41.17
2023-04-08T09:49:18.270Z,28.33
2023-04-08T09:50:30.487Z,24.17
2023-04-08T09:51:36.925Z,28.45
2023-04-08T09:52:45.551Z,25.40
2023-04-08T09:53:53.337Z,23.55
2023-04-08T09:55:08.595Z,20.80
2023-04-08T09:56:15.371Z,24.23
2023-04-08T09:57:25.801Z,19.45
2023-04-08T09:58:33.693Z,19.55
2023-04-08T09:59:38.714Z,20.35
2023-04-08T10:01:07.001Z,19.88
2023-04-08T10:02:11.946Z,22.77
2023-04-08T10:03:20.246Z,25.33
2023-04-08T10:04:25.909Z,21.02
2023-04-08T10:05:29.387Z,22.08
2023-04-08T10:06:33.033Z,23.38
2023-04-08T10:07:36.520Z,19.88
2023-04-08T10:08:39.157Z,19.60
2023-04-08T10:09:43.351Z,20.00
2023-04-08T10:10:49.485Z,17.17
2023-04-08T10:11:53.634Z,22.13
2023-04-08T10:12:59.548Z,20.00
2023-04-08T10:14:03.566Z,19.00
2023-04-08T10:15:31.997Z,22.10
2023-04-08T10:16:34.502Z,20.52
2023-04-08T10:17:39.196Z,18.00
2023-04-08T10:18:44.561Z,18.00
2023-04-08T10:19:47.013Z,19.17
2023-04-08T10:20:52.561Z,19.98
2023-04-08T10:21:55.215Z,18.60
2023-04-08T10:22:58.096Z,19.10
2023-04-08T10:24:06.326Z,18.75
2023-04-08T10:25:36.662Z,21.30
2023-04-08T10:26:42.269Z,20.75
2023-04-08T10:27:47.723Z,20.52
2023-04-08T10:28:50.160Z,17.58
2023-04-08T10:29:52.679Z,17.35
2023-04-08T10:30:59.249Z,18.60
2023-04-08T10:32:04.164Z,18.38
2023-04-08T10:33:16.919Z,19.55
2023-04-08T10:34:27.394Z,18.52
2023-04-08T10:35:31.471Z,17.05
2023-04-08T10:36:34.019Z,19.30
2023-04-08T10:37:36.663Z,23.70
2023-04-08T10:38:42.511Z,19.88
2023-04-08T10:39:51.956Z,16.60
2023-04-08T10:40:54.902Z,18.73
2023-04-08T10:41:57.571Z,16.83
2023-04-08T10:43:00.458Z,16.77
2023-04-08T10:44:35.474Z,16.13
2023-04-08T10:45:38.990Z,17.48
2023-04-08T10:46:41.726Z,17.92
2023-04-08T10:47:44.275Z,15.40
2023-04-08T10:49:01.611Z,16.67
2023-04-08T10:50:24.912Z,20.35
2023-04-08T10:51:33.710Z,20.02
2023-04-08T10:52:36.667Z,18.05
2023-04-08T10:53:40.119Z,19.20
2023-04-08T10:54:48.305Z,18.08
2023-04-08T10:55:52.685Z,16.70
2023-04-08T10:56:56.379Z,21.38
2023-04-08T10:58:11.536Z,18.45
2023-04-08T11:00:07.678Z,19.60
2023-04-08T11:01:09.908Z,16.10
2023-04-08T11:02:16.818Z,18.30
2023-04-08T11:03:49.083Z,21.55
2023-04-08T11:04:58.013Z,17.33
2023-04-08T11:06:04.845Z,19.10
2023-04-08T11:07:17.568Z,15.38
2023-04-08T11:08:37.833Z,14.40
2023-04-08T11:09:49.984Z,15.02
2023-04-08T11:10:56.977Z,16.70
2023-04-08T11:12:00.956Z,17.35
2023-04-08T11:13:07.948Z,14.80
2023-04-08T11:14:13.951Z,17.85
2023-04-08T11:15:20.598Z,15.27
2023-04-08T11:16:28.192Z,15.57
2023-04-08T11:17:34.412Z,15.52
2023-04-08T11:18:41.515Z,17.88
2023-04-08T11:19:45.322Z,14.48
2023-04-08T11:20:53.825Z,17.95
2023-04-08T11:21:59.501Z,16.45
2023-04-08T11:23:04.150Z,13.25
2023-04-08T11:24:21.292Z,14.82
2023-04-08T11:26:55.723Z,13.00
2023-04-08T11:28:01.090Z,16.23
2023-04-08T11:29:05.311Z,16.27
2023-04-08T11:30:09.158Z,15.00
2023-04-08T11:31:13.663Z,15.25
2023-04-08T11:32:16.422Z,16.55
2023-04-08T11:33:21.854Z,13.88
2023-04-08T11:34:27.014Z,18.15
2023-04-08T11:35:33.014Z,15.50
2023-04-08T11:36:36.897Z,17.90
2023-04-08T11:37:41.213Z,13.70
2023-04-08T11:38:44.052Z,24.02
2023-04-08T11:39:46.928Z,23.23
2023-04-08T11:40:56.941Z,12.02
2023-04-08T11:41:59.764Z,25.45
2023-04-08T11:43:13.252Z,18.63
2023-04-08T11:44:17.577Z,19.13
2023-04-08T11:45:23.982Z,47.20
2023-04-08T11:46:26.725Z,24.02
2023-04-08T11:47:35.827Z,23.45
2023-04-08T11:48:39.119Z,12.93
2023-04-08T11:49:47.038Z,13.18
2023-04-08T11:51:08.633Z,17.15
2023-04-08T11:52:11.389Z,15.25
2023-04-08T11:53:22.464Z,10.63
2023-04-08T11:54:29.760Z,9.95
2023-04-08T11:55:34.065Z,8.90
2023-04-08T11:56:50.902Z,8.85
2023-04-08T11:57:57.908Z,9.65
2023-04-08T11:59:13.912Z,9.25
2023-04-08T12:00:20.034Z,13.35
2023-04-08T12:01:23.110Z,9.98
2023-04-08T12:02:28.833Z,8.35
2023-04-08T12:03:33.081Z,9.07
2023-04-08T12:04:36.320Z,8.35
2023-04-08T12:05:42.803Z,10.85
2023-04-08T12:06:47.153Z,9.98
2023-04-08T12:07:50.242Z,10.60
2023-04-08T12:08:56.609Z,13.65
2023-04-08T12:09:59.306Z,9.50
2023-04-08T12:11:13.192Z,8.82
2023-04-08T12:12:19.562Z,9.27
2023-04-08T12:13:22.357Z,8.32
2023-04-08T12:14:27.668Z,11.02
2023-04-08T12:15:34.186Z,10.50
2023-04-08T12:16:37.048Z,12.23
2023-04-08T12:17:39.713Z,7.38
2023-04-08T12:18:42.617Z,6.53
2023-04-08T12:19:45.207Z,7.75
2023-04-08T12:20:48.910Z,7.28
2023-04-08T12:21:51.386Z,7.28
2023-04-08T12:22:54.206Z,8.30
2023-04-08T12:23:57.490Z,8.68
2023-04-08T12:25:00.520Z,8.95
2023-04-08T12:26:04.861Z,6.55
2023-04-08T12:27:07.574Z,6.75
2023-04-08T12:28:19.004Z,7.55
2023-04-08T12:29:21.441Z,7.78
2023-04-08T12:30:23.870Z,7.10
2023-04-08T12:31:27.781Z,7.07
2023-04-08T12:32:30.495Z,7.45
2023-04-08T12:33:33.063Z,8.18
2023-04-08T12:34:35.708Z,9.48
2023-04-08T12:35:38.151Z,11.15
2023-04-08T12:36:41.945Z,63.80
2023-04-08T12:38:00.012Z,100.68
2023-04-08T12:39:03.737Z,113.22
2023-04-08T12:40:21.293Z,104.68
2023-04-08T12:41:28.263Z,85.90
2023-04-08T12:42:35.997Z,77.22
2023-04-08T12:43:42.013Z,60.45
2023-04-08T12:44:44.684Z,56.65
2023-04-08T12:45:48.788Z,51.17
2023-04-08T12:46:51.526Z,49.33
2023-04-08T12:47:57.285Z,43.60
2023-04-08T12:49:04.865Z,38.45
2023-04-08T12:50:09.898Z,36.50
2023-04-08T12:51:15.407Z,35.35
2023-04-08T12:52:22.340Z,34.42
2023-04-08T12:53:25.141Z,31.80
2023-04-08T12:54:33.819Z,30.27
2023-04-08T12:55:40.208Z,25.75
2023-04-08T12:56:46.654Z,23.60
2023-04-08T12:57:58.692Z,29.00
2023-04-08T12:59:01.752Z,26.17
2023-04-08T13:00:06.033Z,22.05
2023-04-08T13:01:10.772Z,21.58
2023-04-08T13:02:19.673Z,24.35
2023-04-08T13:03:57.101Z,21.75
2023-04-08T13:04:59.912Z,24.30
2023-04-08T13:06:19.847Z,21.92
2023-04-08T13:07:26.234Z,26.77
2023-04-08T13:08:31.365Z,24.10
2023-04-08T13:09:45.828Z,23.27
2023-04-08T13:10:59.826Z,23.27
2023-04-08T13:12:04.526Z,25.02
2023-04-08T13:13:10.574Z,21.33
2023-04-08T13:14:14.127Z,20.80
2023-04-08T13:15:23.740Z,19.67
2023-04-08T13:16:29.126Z,21.95
2023-04-08T13:17:33.300Z,18.65
2023-04-08T13:18:40.134Z,21.98
2023-04-08T13:19:42.792Z,19.63
2023-04-08T13:20:45.294Z,15.82
2023-04-08T13:21:48.100Z,19.95
2023-04-08T13:23:05.285Z,22.92
2023-04-08T13:24:07.700Z,22.17
2023-04-08T13:25:24.674Z,69.88
2023-04-08T13:26:30.377Z,69.53
2023-04-08T13:27:49.753Z,69.45
2023-04-08T13:28:57.678Z,39.33
2023-04-08T13:30:20.197Z,33.40
2023-04-08T13:31:45.472Z,31.25
2023-04-08T13:32:49.103Z,35.63
2023-04-08T13:33:53.320Z,30.85
2023-04-08T13:35:21.976Z,36.55
2023-04-08T13:36:28.775Z,38.50
2023-04-08T13:37:40.806Z,40.75
2023-04-08T13:38:56.787Z,34.72
2023-04-08T13:40:02.457Z,31.80
2023-04-08T13:41:05.859Z,30.52
2023-04-08T13:42:08.297Z,31.00
2023-04-08T13:43:10.834Z,31.80
2023-04-08T13:44:20.854Z,31.17
2023-04-08T13:45:23.922Z,29.70
2023-04-08T13:46:26.810Z,29.85
2023-04-08T13:47:29.557Z,31.90
2023-04-08T13:48:32.090Z,28.33
2023-04-08T13:49:34.498Z,31.25
2023-04-08T13:50:42.353Z,31.85
2023-04-08T13:51:44.837Z,28.50
2023-04-08T13:52:47.383Z,27.17
2023-04-08T13:53:50.255Z,25.90
2023-04-08T13:54:52.930Z,19.35
2023-04-08T13:56:02.931Z,16.83
2023-04-08T13:57:06.013Z,18.92
2023-04-08T13:58:22.903Z,16.48
2023-04-08T13:59:32.295Z,15.60
2023-04-08T14:00:38.881Z,15.88
2023-04-08T14:01:54.030Z,14.52
2023-04-08T14:02:57.978Z,13.82
2023-04-08T14:04:00.471Z,25.05
2023-04-08T14:05:03.468Z,17.92
2023-04-08T14:06:06.896Z,12.55
2023-04-08T14:07:13.356Z,12.23
2023-04-08T14:08:16.250Z,13.23
2023-04-08T14:09:21.384Z,10.80
2023-04-08T14:10:26.286Z,10.35
2023-04-08T14:11:28.775Z,10.55
2023-04-08T14:12:31.181Z,12.07
2023-04-08T14:13:36.608Z,11.35
2023-04-08T14:14:39.683Z,9.23
2023-04-08T14:15:42.494Z,10.15